sensor_id;sensor_type;location;lat;lon;timestamp;P1;P2;P0
69746;PMS7003;57018;50.278;19.134;2024-03-23T00:52:07;39.50;31.00;20.00
69746;PMS7003;57018;50.278;19.134;2024-03-23T00:54:37;39.00;34.00;21.00
69746;PMS7003;57018;50.278;19.134;2024-03-23T00:57:06;33.00;30.50;20.00
69746;PMS7003;57018;50.278;19.134;2024-03-23T00:59:39;35.00;29.00;18.00
69746;PMS7003;57018;50.278;19.134;2024-03-23T01:02:09;40.00;34.50;21.00
69746;PMS7003;57018;50.278;19.134;2024-03-23T01:04:39;38.00;32.00;21.00
69746;PMS7003;57018;50.278;19.134;2024-03-23T01:07:09;32.00;31.67;20.67
69746;PMS7003;57018;50.278;19.134;2024-03-23T01:09:39;27.00;27.00;18.00
69746;PMS7003;57018;50.278;19.134;2024-03-23T01:12:09;34.00;28.00;17.00
69746;PMS7003;57018;50.278;19.134;2024-03-23T01:14:40;42.00;34.00;20.00
69746;PMS7003;57018;50.278;19.134;2024-03-23T01:17:10;37.00;32.50;22.00
69746;PMS7003;57018;50.278;19.134;2024-03-23T01:19:40;44.00;34.00;22.50
69746;PMS7003;57018;50.278;19.134;2024-03-23T01:22:10;37.00;33.00;22.00
69746;PMS7003;57018;50.278;19.134;2024-03-23T01:24:40;35.00;32.50;21.00
69746;PMS7003;57018;50.278;19.134;2024-03-23T01:27:10;41.00;33.00;21.00
69746;PMS7003;57018;50.278;19.134;2024-03-23T01:29:40;35.25;31.25;20.00
69746;PMS7003;57018;50.278;19.134;2024-03-23T01:32:10;40.00;31.50;21.00
69746;PMS7003;57018;50.278;19.134;2024-03-23T01:34:42;30.00;30.00;19.00
69746;PMS7003;57018;50.278;19.134;2024-03-23T01:37:12;38.00;33.00;22.00
69746;PMS7003;57018;50.278;19.134;2024-03-23T01:39:42;35.50;30.50;19.50
69746;PMS7003;57018;50.278;19.134;2024-03-23T01:42:14;41.00;32.00;20.50
69746;PMS7003;57018;50.278;19.134;2024-03-23T01:44:44;35.00;31.50;21.00
69746;PMS7003;57018;50.278;19.134;2024-03-23T01:47:14;38.00;34.00;23.00
69746;PMS7003;57018;50.278;19.134;2024-03-23T01:49:44;43.00;35.00;23.00
69746;PMS7003;57018;50.278;19.134;2024-03-23T01:52:16;40.00;34.00;21.50
69746;PMS7003;57018;50.278;19.134;2024-03-23T01:54:46;42.00;33.00;21.50
69746;PMS7003;57018;50.278;19.134;2024-03-23T01:57:17;37.67;33.67;22.67
69746;PMS7003;57018;50.278;19.134;2024-03-23T01:59:47;42.00;36.50;23.50
69746;PMS7003;57018;50.278;19.134;2024-03-23T02:02:17;40.00;34.00;23.00
69746;PMS7003;57018;50.278;19.134;2024-03-23T02:04:50;36.50;33.00;22.50
69746;PMS7003;57018;50.278;19.134;2024-03-23T02:07:19;47.00;35.00;23.00
69746;PMS7003;57018;50.278;19.134;2024-03-23T02:09:51;46.00;37.00;23.00
69746;PMS7003;57018;50.278;19.134;2024-03-23T02:12:21;40.00;34.00;21.00
69746;PMS7003;57018;50.278;19.134;2024-03-23T02:14:51;42.00;35.00;22.50
69746;PMS7003;57018;50.278;19.134;2024-03-23T02:17:21;45.00;39.00;24.00
69746;PMS7003;57018;50.278;19.134;2024-03-23T02:19:51;51.50;41.00;26.50
69746;PMS7003;57018;50.278;19.134;2024-03-23T02:22:21;49.67;40.00;24.67
69746;PMS7003;57018;50.278;19.134;2024-03-23T02:24:51;54.50;41.50;26.00
69746;PMS7003;57018;50.278;19.134;2024-03-23T02:27:21;55.00;43.00;27.67
69746;PMS7003;57018;50.278;19.134;2024-03-23T02:29:52;59.50;45.50;27.50
69746;PMS7003;57018;50.278;19.134;2024-03-23T02:32:22;55.00;44.00;27.00
69746;PMS7003;57018;50.278;19.134;2024-03-23T02:34:52;52.50;43.25;27.25
69746;PMS7003;57018;50.278;19.134;2024-03-23T02:37:22;52.00;42.00;27.50
69746;PMS7003;57018;50.278;19.134;2024-03-23T02:39:52;47.00;40.00;25.00
69746;PMS7003;57018;50.278;19.134;2024-03-23T02:42:21;48.00;39.00;25.00
69746;PMS7003;57018;50.278;19.134;2024-03-23T02:44:51;44.00;36.00;23.00
69746;PMS7003;57018;50.278;19.134;2024-03-23T02:47:21;48.67;37.33;24.00
69746;PMS7003;57018;50.278;19.134;2024-03-23T02:49:51;52.00;40.00;25.00
69746;PMS7003;57018;50.278;19.134;2024-03-23T02:52:21;52.00;43.00;28.00
69746;PMS7003;57018;50.278;19.134;2024-03-23T02:54:51;56.50;46.50;29.00
69746;PMS7003;57018;50.278;19.134;2024-03-23T02:57:21;53.50;42.00;26.50
69746;PMS7003;57018;50.278;19.134;2024-03-23T02:59:51;49.00;40.00;27.00
69746;PMS7003;57018;50.278;19.134;2024-03-23T03:02:21;50.00;42.00;27.00
69746;PMS7003;57018;50.278;19.134;2024-03-23T03:04:51;53.00;43.00;25.50
69746;PMS7003;57018;50.278;19.134;2024-03-23T03:07:21;47.00;41.00;25.00
69746;PMS7003;57018;50.278;19.134;2024-03-23T03:09:51;48.00;39.50;24.50
69746;PMS7003;57018;50.278;19.134;2024-03-23T03:12:21;59.50;44.00;27.50
69746;PMS7003;57018;50.278;19.134;2024-03-23T03:14:51;55.00;45.00;28.00
69746;PMS7003;57018;50.278;19.134;2024-03-23T03:17:21;53.00;42.00;27.00
69746;PMS7003;57018;50.278;19.134;2024-03-23T03:19:51;51.00;41.00;26.00
69746;PMS7003;57018;50.278;19.134;2024-03-23T03:22:22;52.00;43.00;27.00
69746;PMS7003;57018;50.278;19.134;2024-03-23T03:24:52;57.00;45.00;29.00
69746;PMS7003;57018;50.278;19.134;2024-03-23T03:27:22;53.00;43.33;27.33
69746;PMS7003;57018;50.278;19.134;2024-03-23T03:29:52;52.50;43.50;28.50
69746;PMS7003;57018;50.278;19.134;2024-03-23T03:32:22;53.00;43.50;28.00
69746;PMS7003;57018;50.278;19.134;2024-03-23T03:37:20;59.00;47.50;30.50
69746;PMS7003;57018;50.278;19.134;2024-03-23T03:39:50;57.75;47.50;30.75
69746;PMS7003;57018;50.278;19.134;2024-03-23T03:42:20;59.33;46.33;28.00
69746;PMS7003;57018;50.278;19.134;2024-03-23T03:44:50;62.50;49.00;30.00
69746;PMS7003;57018;50.278;19.134;2024-03-23T03:47:21;53.50;43.50;28.00
69746;PMS7003;57018;50.278;19.134;2024-03-23T03:49:51;53.00;42.00;28.50
69746;PMS7003;57018;50.278;19.134;2024-03-23T03:52:21;56.00;44.00;29.00
69746;PMS7003;57018;50.278;19.134;2024-03-23T03:54:55;48.50;41.00;26.00
69746;PMS7003;57018;50.278;19.134;2024-03-23T03:57:29;57.00;45.00;27.50
69746;PMS7003;57018;50.278;19.134;2024-03-23T03:59:59;54.50;43.00;27.50
69746;PMS7003;57018;50.278;19.134;2024-03-23T04:02:30;53.00;43.00;28.00
69746;PMS7003;57018;50.278;19.134;2024-03-23T04:05:00;52.50;42.50;27.50
69746;PMS7003;57018;50.278;19.134;2024-03-23T04:07:30;53.00;42.00;25.00
69746;PMS7003;57018;50.278;19.134;2024-03-23T04:10:00;50.00;41.00;27.00
69746;PMS7003;57018;50.278;19.134;2024-03-23T04:12:34;53.00;44.00;28.00
69746;PMS7003;57018;50.278;19.134;2024-03-23T04:15:04;56.50;42.50;28.00
69746;PMS7003;57018;50.278;19.134;2024-03-23T04:17:35;52.00;41.00;26.00
69746;PMS7003;57018;50.278;19.134;2024-03-23T04:20:06;55.00;41.00;25.00
69746;PMS7003;57018;50.278;19.134;2024-03-23T04:22:38;50.00;39.00;25.00
69746;PMS7003;57018;50.278;19.134;2024-03-23T04:25:08;48.50;41.00;25.00
69746;PMS7003;57018;50.278;19.134;2024-03-23T04:27:38;55.33;41.67;25.33
69746;PMS7003;57018;50.278;19.134;2024-03-23T04:30:10;45.50;37.50;24.00
69746;PMS7003;57018;50.278;19.134;2024-03-23T04:32:42;49.00;40.00;25.00
69746;PMS7003;57018;50.278;19.134;2024-03-23T04:35:12;44.50;36.00;23.50
69746;PMS7003;57018;50.278;19.134;2024-03-23T04:37:42;48.00;38.00;24.00
69746;PMS7003;57018;50.278;19.134;2024-03-23T04:40:12;41.67;36.33;23.33
69746;PMS7003;57018;50.278;19.134;2024-03-23T04:42:42;49.00;38.00;24.00
69746;PMS7003;57018;50.278;19.134;2024-03-23T04:45:12;38.00;33.00;22.00
69746;PMS7003;57018;50.278;19.134;2024-03-23T04:47:42;44.00;37.00;24.00
69746;PMS7003;57018;50.278;19.134;2024-03-23T04:50:13;46.00;37.67;24.67
69746;PMS7003;57018;50.278;19.134;2024-03-23T04:52:43;50.00;40.00;25.00
69746;PMS7003;57018;50.278;19.134;2024-03-23T04:55:13;50.00;40.00;25.00
69746;PMS7003;57018;50.278;19.134;2024-03-23T04:57:44;48.50;40.00;25.00
69746;PMS7003;57018;50.278;19.134;2024-03-23T05:00:15;46.00;38.00;26.00
69746;PMS7003;57018;50.278;19.134;2024-03-23T05:02:46;47.00;38.00;24.00
69746;PMS7003;57018;50.278;19.134;2024-03-23T05:05:16;45.00;39.00;25.00
69746;PMS7003;57018;50.278;19.134;2024-03-23T05:07:46;48.00;38.00;24.00
69746;PMS7003;57018;50.278;19.134;2024-03-23T05:10:16;48.50;40.50;24.00
69746;PMS7003;57018;50.278;19.134;2024-03-23T05:12:46;47.00;37.00;24.00
69746;PMS7003;57018;50.278;19.134;2024-03-23T05:15:16;52.00;41.67;25.00
69746;PMS7003;57018;50.278;19.134;2024-03-23T05:17:46;45.50;37.50;24.50
69746;PMS7003;57018;50.278;19.134;2024-03-23T05:20:16;48.50;37.50;24.00
69746;PMS7003;57018;50.278;19.134;2024-03-23T05:22:46;49.00;41.00;26.00
69746;PMS7003;57018;50.278;19.134;2024-03-23T05:25:17;52.00;42.00;25.00
69746;PMS7003;57018;50.278;19.134;2024-03-23T05:27:47;49.00;39.00;26.00
69746;PMS7003;57018;50.278;19.134;2024-03-23T05:30:17;48.00;41.50;27.00
69746;PMS7003;57018;50.278;19.134;2024-03-23T05:32:47;50.00;42.00;28.00
69746;PMS7003;57018;50.278;19.134;2024-03-23T05:35:17;45.50;38.50;25.50
69746;PMS7003;57018;50.278;19.134;2024-03-23T05:37:47;48.00;38.50;24.50
69746;PMS7003;57018;50.278;19.134;2024-03-23T05:40:17;48.50;38.50;26.50
69746;PMS7003;57018;50.278;19.134;2024-03-23T05:42:47;46.67;37.33;24.67
69746;PMS7003;57018;50.278;19.134;2024-03-23T05:45:19;46.00;38.00;25.50
69746;PMS7003;57018;50.278;19.134;2024-03-23T05:47:49;49.50;38.00;24.50
69746;PMS7003;57018;50.278;19.134;2024-03-23T05:50:19;43.67;36.00;24.00
69746;PMS7003;57018;50.278;19.134;2024-03-23T05:52:49;38.00;34.00;22.00
69746;PMS7003;57018;50.278;19.134;2024-03-23T05:55:20;41.50;36.00;24.00
69746;PMS7003;57018;50.278;19.134;2024-03-23T05:57:50;41.00;36.50;23.50
69746;PMS7003;57018;50.278;19.134;2024-03-23T06:00:20;45.00;36.00;24.33
69746;PMS7003;57018;50.278;19.134;2024-03-23T06:02:55;45.00;37.00;24.00
69746;PMS7003;57018;50.278;19.134;2024-03-23T06:05:25;48.50;41.50;26.00
69746;PMS7003;57018;50.278;19.134;2024-03-23T06:07:55;48.00;38.00;25.00
69746;PMS7003;57018;50.278;19.134;2024-03-23T06:10:25;45.00;38.00;25.00
69746;PMS7003;57018;50.278;19.134;2024-03-23T06:12:55;48.50;40.00;24.50
69746;PMS7003;57018;50.278;19.134;2024-03-23T06:15:26;45.00;38.00;23.00
69746;PMS7003;57018;50.278;19.134;2024-03-23T06:17:58;47.33;39.00;25.33
69746;PMS7003;57018;50.278;19.134;2024-03-23T06:20:28;44.00;36.00;24.00
69746;PMS7003;57018;50.278;19.134;2024-03-23T06:22:59;47.00;39.00;25.00
69746;PMS7003;57018;50.278;19.134;2024-03-23T06:25:30;50.00;41.00;25.00
69746;PMS7003;57018;50.278;19.134;2024-03-23T06:28:00;49.00;41.00;25.00
69746;PMS7003;57018;50.278;19.134;2024-03-23T06:30:31;51.00;41.67;28.33
69746;PMS7003;57018;50.278;19.134;2024-03-23T06:33:01;58.00;45.00;29.00
69746;PMS7003;57018;50.278;19.134;2024-03-23T06:35:32;56.67;45.33;29.00
69746;PMS7003;57018;50.278;19.134;2024-03-23T06:38:02;60.00;47.00;30.00
69746;PMS7003;57018;50.278;19.134;2024-03-23T06:40:35;53.50;44.50;29.00
69746;PMS7003;57018;50.278;19.134;2024-03-23T06:43:05;53.33;43.33;28.00
69746;PMS7003;57018;50.278;19.134;2024-03-23T06:45:35;53.50;44.00;28.50
69746;PMS7003;57018;50.278;19.134;2024-03-23T06:48:06;51.00;41.50;25.50
69746;PMS7003;57018;50.278;19.134;2024-03-23T06:50:36;50.00;41.00;29.00
69746;PMS7003;57018;50.278;19.134;2024-03-23T06:53:08;52.50;42.50;28.50
69746;PMS7003;57018;50.278;19.134;2024-03-23T06:55:38;55.33;45.67;29.33
69746;PMS7003;57018;50.278;19.134;2024-03-23T06:58:08;56.50;44.75;29.00
69746;PMS7003;57018;50.278;19.134;2024-03-23T07:00:38;54.50;45.00;29.00
69746;PMS7003;57018;50.278;19.134;2024-03-23T07:03:10;58.33;46.67;29.00
69746;PMS7003;57018;50.278;19.134;2024-03-23T07:05:40;57.50;45.00;28.50
69746;PMS7003;57018;50.278;19.134;2024-03-23T07:08:10;53.00;43.00;28.50
69746;PMS7003;57018;50.278;19.134;2024-03-23T07:10:45;54.00;44.00;28.33
69746;PMS7003;57018;50.278;19.134;2024-03-23T07:13:15;49.33;39.67;26.67
69746;PMS7003;57018;50.278;19.134;2024-03-23T07:15:49;50.00;43.00;28.00
69746;PMS7003;57018;50.278;19.134;2024-03-23T07:18:21;50.33;40.67;27.67
69746;PMS7003;57018;50.278;19.134;2024-03-23T07:20:54;54.00;41.50;27.00
69746;PMS7003;57018;50.278;19.134;2024-03-23T07:23:25;51.50;43.00;29.50
69746;PMS7003;57018;50.278;19.134;2024-03-23T07:25:58;57.50;46.00;31.00
69746;PMS7003;57018;50.278;19.134;2024-03-23T07:28:28;54.50;45.50;30.00
69746;PMS7003;57018;50.278;19.134;2024-03-23T07:31:04;54.33;44.67;30.00
69746;PMS7003;57018;50.278;19.134;2024-03-23T07:33:35;52.00;41.67;28.33
69746;PMS7003;57018;50.278;19.134;2024-03-23T07:36:09;53.00;41.00;26.00
69746;PMS7003;57018;50.278;19.134;2024-03-23T07:38:41;45.00;38.00;25.00
69746;PMS7003;57018;50.278;19.134;2024-03-23T07:41:14;43.67;38.33;24.00
69746;PMS7003;57018;50.278;19.134;2024-03-23T07:43:45;53.00;44.00;27.00
69746;PMS7003;57018;50.278;19.134;2024-03-23T07:46:15;47.00;35.50;23.50
69746;PMS7003;57018;50.278;19.134;2024-03-23T07:48:49;47.00;36.00;24.00
69746;PMS7003;57018;50.278;19.134;2024-03-23T07:51:20;39.67;34.33;22.33
69746;PMS7003;57018;50.278;19.134;2024-03-23T07:53:50;40.75;34.75;23.75
69746;PMS7003;57018;50.278;19.134;2024-03-23T07:56:21;36.67;34.00;23.33
69746;PMS7003;57018;50.278;19.134;2024-03-23T07:58:51;40.50;32.50;21.50
69746;PMS7003;57018;50.278;19.134;2024-03-23T08:01:20;27.00;24.00;18.00
69746;PMS7003;57018;50.278;19.134;2024-03-23T08:03:50;24.50;21.50;14.00
69746;PMS7003;57018;50.278;19.134;2024-03-23T08:06:20;22.00;20.00;13.00
69746;PMS7003;57018;50.278;19.134;2024-03-23T08:08:51;16.50;16.50;13.00
69746;PMS7003;57018;50.278;19.134;2024-03-23T08:11:27;21.00;20.00;12.00
69746;PMS7003;57018;50.278;19.134;2024-03-23T08:13:58;21.50;19.00;14.50
69746;PMS7003;57018;50.278;19.134;2024-03-23T08:16:28;16.50;16.00;11.50
69746;PMS7003;57018;50.278;19.134;2024-03-23T08:18:58;23.00;19.00;13.00
69746;PMS7003;57018;50.278;19.134;2024-03-23T08:21:32;20.00;19.00;14.00
69746;PMS7003;57018;50.278;19.134;2024-03-23T08:24:02;17.50;17.50;12.50
69746;PMS7003;57018;50.278;19.134;2024-03-23T08:26:33;20.00;18.00;13.00
69746;PMS7003;57018;50.278;19.134;2024-03-23T08:29:04;18.00;18.00;14.00
69746;PMS7003;57018;50.278;19.134;2024-03-23T08:31:34;21.00;20.00;14.00
69746;PMS7003;57018;50.278;19.134;2024-03-23T08:36:32;16.00;16.00;13.00
69746;PMS7003;57018;50.278;19.134;2024-03-23T08:39:02;17.75;16.00;11.25
69746;PMS7003;57018;50.278;19.134;2024-03-23T08:41:32;15.00;15.00;11.00
69746;PMS7003;57018;50.278;19.134;2024-03-23T08:44:02;15.00;13.00;10.00
69746;PMS7003;57018;50.278;19.134;2024-03-23T08:46:32;16.33;14.67;10.00
69746;PMS7003;57018;50.278;19.134;2024-03-23T08:49:02;16.00;15.33;9.33
69746;PMS7003;57018;50.278;19.134;2024-03-23T08:51:32;15.00;15.00;12.00
69746;PMS7003;57018;50.278;19.134;2024-03-23T08:54:01;13.00;12.00;9.00
69746;PMS7003;57018;50.278;19.134;2024-03-23T08:56:31;16.00;14.00;9.00
69746;PMS7003;57018;50.278;19.134;2024-03-23T08:59:01;14.00;13.00;10.00
69746;PMS7003;57018;50.278;19.134;2024-03-23T09:01:31;11.00;11.00;7.00
69746;PMS7003;57018;50.278;19.134;2024-03-23T09:04:01;12.50;12.00;8.50
69746;PMS7003;57018;50.278;19.134;2024-03-23T09:06:31;15.00;11.00;8.00
69746;PMS7003;57018;50.278;19.134;2024-03-23T09:09:01;12.00;11.00;8.00
69746;PMS7003;57018;50.278;19.134;2024-03-23T09:11:31;13.00;12.00;9.00
69746;PMS7003;57018;50.278;19.134;2024-03-23T09:14:01;14.00;12.50;8.00
69746;PMS7003;57018;50.278;19.134;2024-03-23T09:16:31;12.33;11.00;7.67
69746;PMS7003;57018;50.278;19.134;2024-03-23T09:19:01;11.00;11.00;8.00
69746;PMS7003;57018;50.278;19.134;2024-03-23T09:21:30;12.00;11.00;8.00
69746;PMS7003;57018;50.278;19.134;2024-03-23T09:24:00;9.00;9.00;8.00
69746;PMS7003;57018;50.278;19.134;2024-03-23T09:26:30;11.00;11.00;7.00
69746;PMS7003;57018;50.278;19.134;2024-03-23T09:29:00;10.00;10.00;8.00
69746;PMS7003;57018;50.278;19.134;2024-03-23T09:31:33;11.00;11.00;7.00
69746;PMS7003;57018;50.278;19.134;2024-03-23T09:34:04;11.00;10.00;7.00
69746;PMS7003;57018;50.278;19.134;2024-03-23T09:36:34;9.00;9.00;7.00
69746;PMS7003;57018;50.278;19.134;2024-03-23T09:39:04;11.00;11.00;7.00
69746;PMS7003;57018;50.278;19.134;2024-03-23T09:41:36;11.00;9.00;8.00
69746;PMS7003;57018;50.278;19.134;2024-03-23T09:44:06;9.00;9.00;7.00
69746;PMS7003;57018;50.278;19.134;2024-03-23T09:46:36;14.00;9.67;6.33
69746;PMS7003;57018;50.278;19.134;2024-03-23T09:49:07;9.00;8.00;5.00
69746;PMS7003;57018;50.278;19.134;2024-03-23T09:51:37;9.00;9.00;7.50
69746;PMS7003;57018;50.278;19.134;2024-03-23T09:54:08;8.00;7.00;6.00
69746;PMS7003;57018;50.278;19.134;2024-03-23T09:56:39;9.67;7.67;5.33
69746;PMS7003;57018;50.278;19.134;2024-03-23T09:59:08;11.00;8.00;6.00
69746;PMS7003;57018;50.278;19.134;2024-03-23T10:01:38;8.50;8.50;6.00
69746;PMS7003;57018;50.278;19.134;2024-03-23T10:04:09;10.00;8.00;6.00
69746;PMS7003;57018;50.278;19.134;2024-03-23T10:06:39;11.50;10.00;6.50
69746;PMS7003;57018;50.278;19.134;2024-03-23T10:09:15;11.00;10.33;6.67
69746;PMS7003;57018;50.278;19.134;2024-03-23T10:11:46;8.50;8.50;7.00
69746;PMS7003;57018;50.278;19.134;2024-03-23T10:14:21;9.50;8.00;5.00
69746;PMS7003;57018;50.278;19.134;2024-03-23T10:17:00;9.67;9.67;6.00
69746;PMS7003;57018;50.278;19.134;2024-03-23T10:19:42;10.50;10.50;7.50
69746;PMS7003;57018;50.278;19.134;2024-03-23T10:22:13;9.00;9.00;7.00
69746;PMS7003;57018;50.278;19.134;2024-03-23T10:24:46;9.00;8.00;7.00
69746;PMS7003;57018;50.278;19.134;2024-03-23T10:27:16;7.67;6.00;5.00
69746;PMS7003;57018;50.278;19.134;2024-03-23T10:29:47;8.67;8.67;6.33
69746;PMS7003;57018;50.278;19.134;2024-03-23T10:32:17;14.00;12.00;8.00
69746;PMS7003;57018;50.278;19.134;2024-03-23T10:34:47;10.00;10.00;7.00
69746;PMS7003;57018;50.278;19.134;2024-03-23T10:37:17;10.00;9.00;6.50
69746;PMS7003;57018;50.278;19.134;2024-03-23T10:39:47;10.00;10.00;5.00
69746;PMS7003;57018;50.278;19.134;2024-03-23T10:42:17;9.00;9.00;7.25
69746;PMS7003;57018;50.278;19.134;2024-03-23T10:44:49;8.00;7.00;5.00
69746;PMS7003;57018;50.278;19.134;2024-03-23T10:47:21;10.00;10.00;7.00
69746;PMS7003;57018;50.278;19.134;2024-03-23T10:49:50;11.00;7.00;6.00
69746;PMS7003;57018;50.278;19.134;2024-03-23T10:52:20;10.00;9.00;6.00
69746;PMS7003;57018;50.278;19.134;2024-03-23T10:54:51;9.67;8.33;6.33
69746;PMS7003;57018;50.278;19.134;2024-03-23T10:57:25;10.67;10.67;7.00
69746;PMS7003;57018;50.278;19.134;2024-03-23T10:59:58;12.00;10.00;7.00
69746;PMS7003;57018;50.278;19.134;2024-03-23T11:02:30;11.50;11.50;7.00
69746;PMS7003;57018;50.278;19.134;2024-03-23T11:05:00;8.00;8.00;6.00
69746;PMS7003;57018;50.278;19.134;2024-03-23T11:07:45;11.00;9.00;5.00
69746;PMS7003;57018;50.278;19.134;2024-03-23T11:10:25;9.50;8.50;7.50
69746;PMS7003;57018;50.278;19.134;2024-03-23T11:12:57;7.50;7.50;5.50
69746;PMS7003;57018;50.278;19.134;2024-03-23T11:15:47;9.00;8.00;5.00
69746;PMS7003;57018;50.278;19.134;2024-03-23T11:18:21;6.33;6.33;5.67
69746;PMS7003;57018;50.278;19.134;2024-03-23T11:20:51;8.00;7.00;6.00
69746;PMS7003;57018;50.278;19.134;2024-03-23T11:23:28;7.00;7.00;5.00
69746;PMS7003;57018;50.278;19.134;2024-03-23T11:25:58;8.50;8.50;6.00
69746;PMS7003;57018;50.278;19.134;2024-03-23T11:28:28;7.67;7.00;5.00
69746;PMS7003;57018;50.278;19.134;2024-03-23T11:30:58;8.67;7.33;5.00
69746;PMS7003;57018;50.278;19.134;2024-03-23T11:33:28;7.00;7.00;5.00
69746;PMS7003;57018;50.278;19.134;2024-03-23T11:35:58;6.00;5.50;4.00
69746;PMS7003;57018;50.278;19.134;2024-03-23T11:38:30;6.50;6.50;5.00
69746;PMS7003;57018;50.278;19.134;2024-03-23T11:41:06;9.00;8.00;5.00
69746;PMS7003;57018;50.278;19.134;2024-03-23T11:43:37;5.00;5.00;4.00
69746;PMS7003;57018;50.278;19.134;2024-03-23T11:46:07;9.00;9.00;7.00
69746;PMS7003;57018;50.278;19.134;2024-03-23T11:48:37;10.50;9.00;5.00
69746;PMS7003;57018;50.278;19.134;2024-03-23T11:51:07;7.75;7.75;5.00
69746;PMS7003;57018;50.278;19.134;2024-03-23T11:53:38;8.00;7.00;5.00
69746;PMS7003;57018;50.278;19.134;2024-03-23T11:56:08;6.50;6.00;5.00
69746;PMS7003;57018;50.278;19.134;2024-03-23T11:58:37;9.00;8.00;6.00
69746;PMS7003;57018;50.278;19.134;2024-03-23T12:01:09;5.50;5.50;4.00
69746;PMS7003;57018;50.278;19.134;2024-03-23T12:03:43;5.50;5.50;4.50
69746;PMS7003;57018;50.278;19.134;2024-03-23T12:06:13;9.50;8.50;6.00
69746;PMS7003;57018;50.278;19.134;2024-03-23T12:08:49;9.00;8.50;6.00
69746;PMS7003;57018;50.278;19.134;2024-03-23T12:11:19;8.00;8.00;5.00
69746;PMS7003;57018;50.278;19.134;2024-03-23T12:13:50;9.00;6.00;5.00
69746;PMS7003;57018;50.278;19.134;2024-03-23T12:16:21;5.33;5.00;4.67
69746;PMS7003;57018;50.278;19.134;2024-03-23T12:18:55;7.00;7.00;5.00
69746;PMS7003;57018;50.278;19.134;2024-03-23T12:21:34;5.00;4.00;4.00
69746;PMS7003;57018;50.278;19.134;2024-03-23T12:24:05;7.67;7.67;5.00
69746;PMS7003;57018;50.278;19.134;2024-03-23T12:26:35;5.00;5.00;4.00
69746;PMS7003;57018;50.278;19.134;2024-03-23T12:29:06;5.50;5.50;5.00
69746;PMS7003;57018;50.278;19.134;2024-03-23T12:31:36;5.00;5.00;5.00
69746;PMS7003;57018;50.278;19.134;2024-03-23T12:34:06;6.00;5.00;3.00
69746;PMS7003;57018;50.278;19.134;2024-03-23T12:36:36;6.00;6.00;5.00
69746;PMS7003;57018;50.278;19.134;2024-03-23T12:39:06;4.00;4.00;3.00
69746;PMS7003;57018;50.278;19.134;2024-03-23T12:41:36;8.00;5.00;4.00
69746;PMS7003;57018;50.278;19.134;2024-03-23T12:44:06;8.50;7.50;5.00
69746;PMS7003;57018;50.278;19.134;2024-03-23T12:46:39;7.00;5.00;4.00
69746;PMS7003;57018;50.278;19.134;2024-03-23T12:49:09;6.00;6.00;4.50
69746;PMS7003;57018;50.278;19.134;2024-03-23T12:51:39;5.00;5.00;4.00
69746;PMS7003;57018;50.278;19.134;2024-03-23T12:54:21;4.50;4.50;3.50
69746;PMS7003;57018;50.278;19.134;2024-03-23T12:56:52;7.00;6.00;4.00
69746;PMS7003;57018;50.278;19.134;2024-03-23T12:59:21;4.00;4.00;3.00
69746;PMS7003;57018;50.278;19.134;2024-03-23T13:01:51;6.50;5.00;4.00
69746;PMS7003;57018;50.278;19.134;2024-03-23T13:04:22;5.00;5.00;4.00
69746;PMS7003;57018;50.278;19.134;2024-03-23T13:06:51;4.00;4.00;3.00
69746;PMS7003;57018;50.278;19.134;2024-03-23T13:09:23;5.00;4.50;4.00
69746;PMS7003;57018;50.278;19.134;2024-03-23T13:11:53;4.00;4.00;3.00
69746;PMS7003;57018;50.278;19.134;2024-03-23T13:14:23;5.00;5.00;3.00
69746;PMS7003;57018;50.278;19.134;2024-03-23T13:16:53;6.00;5.00;3.00
69746;PMS7003;57018;50.278;19.134;2024-03-23T13:19:23;4.00;4.00;3.00
69746;PMS7003;57018;50.278;19.134;2024-03-23T13:21:55;4.00;4.00;3.00
69746;PMS7003;57018;50.278;19.134;2024-03-23T13:24:25;4.50;4.50;2.50
69746;PMS7003;57018;50.278;19.134;2024-03-23T13:26:56;8.33;7.00;4.00
69746;PMS7003;57018;50.278;19.134;2024-03-23T13:29:26;5.33;5.33;4.00
69746;PMS7003;57018;50.278;19.134;2024-03-23T13:31:56;5.00;5.00;4.00
69746;PMS7003;57018;50.278;19.134;2024-03-23T13:34:26;5.00;5.00;4.00
69746;PMS7003;57018;50.278;19.134;2024-03-23T13:36:56;4.67;4.67;4.00
69746;PMS7003;57018;50.278;19.134;2024-03-23T13:39:26;4.00;4.00;3.00
69746;PMS7003;57018;50.278;19.134;2024-03-23T13:41:56;4.67;4.67;3.67
69746;PMS7003;57018;50.278;19.134;2024-03-23T13:44:26;8.00;7.50;4.00
69746;PMS7003;57018;50.278;19.134;2024-03-23T13:46:56;6.50;6.50;5.00
69746;PMS7003;57018;50.278;19.134;2024-03-23T13:49:27;6.75;6.75;5.25
69746;PMS7003;57018;50.278;19.134;2024-03-23T13:51:59;3.00;3.00;2.00
69746;PMS7003;57018;50.278;19.134;2024-03-23T13:54:29;8.50;6.00;3.00
69746;PMS7003;57018;50.278;19.134;2024-03-23T13:56:59;4.50;4.50;3.50
69746;PMS7003;57018;50.278;19.134;2024-03-23T13:59:29;4.00;4.00;2.50
69746;PMS7003;57018;50.278;19.134;2024-03-23T14:01:59;5.00;3.00;3.00
69746;PMS7003;57018;50.278;19.134;2024-03-23T14:04:29;3.00;2.33;2.00
69746;PMS7003;57018;50.278;19.134;2024-03-23T14:06:59;4.00;3.00;2.00
69746;PMS7003;57018;50.278;19.134;2024-03-23T14:09:29;5.33;5.33;3.67
69746;PMS7003;57018;50.278;19.134;2024-03-23T14:11:59;6.00;5.00;3.67
69746;PMS7003;57018;50.278;19.134;2024-03-23T14:14:30;8.00;8.00;7.00
69746;PMS7003;57018;50.278;19.134;2024-03-23T14:17:00;15.50;14.00;10.50
69746;PMS7003;57018;50.278;19.134;2024-03-23T14:19:30;12.00;11.00;10.00
69746;PMS7003;57018;50.278;19.134;2024-03-23T14:22:00;17.50;16.50;12.00
69746;PMS7003;57018;50.278;19.134;2024-03-23T14:24:31;11.00;11.00;8.00
69746;PMS7003;57018;50.278;19.134;2024-03-23T14:27:02;12.50;12.50;7.00
69746;PMS7003;57018;50.278;19.134;2024-03-23T14:29:34;15.00;12.00;10.00
69746;PMS7003;57018;50.278;19.134;2024-03-23T14:32:04;21.50;21.50;13.50
69746;PMS7003;57018;50.278;19.134;2024-03-23T14:34:34;18.00;17.00;13.50
69746;PMS7003;57018;50.278;19.134;2024-03-23T14:37:06;21.00;18.00;13.00
69746;PMS7003;57018;50.278;19.134;2024-03-23T14:39:38;19.50;17.50;11.50
69746;PMS7003;57018;50.278;19.134;2024-03-23T14:42:08;14.00;11.50;8.00
69746;PMS7003;57018;50.278;19.134;2024-03-23T14:44:38;13.00;10.00;6.00
69746;PMS7003;57018;50.278;19.134;2024-03-23T14:47:09;10.00;8.00;6.00
69746;PMS7003;57018;50.278;19.134;2024-03-23T14:49:39;9.00;9.00;7.00
69746;PMS7003;57018;50.278;19.134;2024-03-23T14:52:09;14.50;11.50;8.00
69746;PMS7003;57018;50.278;19.134;2024-03-23T14:54:39;9.50;9.00;7.00
69746;PMS7003;57018;50.278;19.134;2024-03-23T14:57:09;10.50;10.00;6.50
69746;PMS7003;57018;50.278;19.134;2024-03-23T14:59:39;12.00;11.00;8.00
69746;PMS7003;57018;50.278;19.134;2024-03-23T15:02:09;11.50;11.50;7.75